Time;durP1;ratioP1;P1;durP2;ratioP2;P2;SDS_P1;SDS_P2;PMS_P1;PMS_P2;Temp;Humidity;BMP_temperature;BMP_pressure;BME280_temperature;BME280_humidity;BME280_pressure;Samples;Min_cycle;Max_cycle;Signal;HPM_P1;HPM_P2
2024/03/15 00:01:08;;;;;;;;;8.00;8.00;;;;;;;;5022080;28;45312;-79
2024/03/15 00:03:33;;;;;;;;;10.00;8.67;;;;;;;;5021350;28;45293;-79
2024/03/15 00:05:59;;;;;;;;;8.00;8.00;;;;;;;;5021728;28;46032;-79
2024/03/15 00:08:26;;;;;;;;;12.00;10.67;;;;;;;;5021830;28;45238;-80
2024/03/15 00:10:51;;;;;;;;;11.67;10.00;;;;;;;;5003780;28;45311;-79
2024/03/15 00:13:17;;;;;;;;;11.67;10.00;;;;;;;;5003793;28;47440;-80
2024/03/15 00:15:42;;;;;;;;;9.00;8.33;;;;;;;;5021716;28;46106;-81
2024/03/15 00:18:07;;;;;;;;;9.67;9.00;;;;;;;;5021510;28;45346;-79
2024/03/15 00:20:32;;;;;;;;;7.67;7.33;;;;;;;;5003882;28;45373;-80
2024/03/15 00:22:57;;;;;;;;;9.00;9.00;;;;;;;;5021132;28;45312;-80
2024/03/15 00:25:23;;;;;;;;;9.00;8.33;;;;;;;;5021777;28;45298;-80
2024/03/15 00:27:48;;;;;;;;;8.67;8.67;;;;;;;;5021581;28;45305;-80
2024/03/15 00:30:13;;;;;;;;;8.00;7.33;;;;;;;;5003505;28;45258;-79
2024/03/15 00:32:39;;;;;;;;;11.00;11.00;;;;;;;;5003361;28;45996;-79
2024/03/15 00:35:04;;;;;;;;;17.00;11.67;;;;;;;;5020884;28;45599;-79
2024/03/15 00:37:30;;;;;;;;;12.33;12.33;;;;;;;;5021457;28;46024;-79
2024/03/15 00:39:55;;;;;;;;;12.00;9.33;;;;;;;;5003336;28;45377;-80
2024/03/15 00:42:20;;;;;;;;;7.67;7.67;;;;;;;;5020878;28;45423;-79
2024/03/15 00:44:46;;;;;;;;;9.33;9.33;;;;;;;;5021157;28;46322;-80
2024/03/15 00:47:12;;;;;;;;;8.00;8.00;;;;;;;;5021051;28;45409;-79
2024/03/15 00:49:38;;;;;;;;;6.67;6.67;;;;;;;;5021231;28;45331;-79
2024/03/15 00:52:03;;;;;;;;;6.00;6.00;;;;;;;;5003355;28;46319;-79
2024/03/15 00:54:28;;;;;;;;;8.00;7.33;;;;;;;;5021137;28;46518;-79
2024/03/15 00:56:53;;;;;;;;;11.00;9.00;;;;;;;;4999247;28;45358;-79
2024/03/15 00:59:20;;;;;;;;;7.33;7.00;;;;;;;;5001249;28;45595;-79
2024/03/15 01:01:45;;;;;;;;;5.33;5.33;;;;;;;;5001135;28;45212;-79
2024/03/15 01:04:10;;;;;;;;;8.33;7.67;;;;;;;;4982819;28;47077;-79
2024/03/15 01:06:35;;;;;;;;;8.00;8.00;;;;;;;;5001012;28;45371;-79
2024/03/15 01:09:01;;;;;;;;;5.00;5.00;;;;;;;;4982821;28;45319;-79
2024/03/15 01:11:28;;;;;;;;;7.33;7.33;;;;;;;;4982809;28;46006;-79
2024/03/15 01:13:57;;;;;;;;;8.00;8.00;;;;;;;;4999752;28;45373;-79
2024/03/15 01:16:22;;;;;;;;;7.00;6.33;;;;;;;;5000899;28;45328;-79
2024/03/15 01:18:47;;;;;;;;;4.67;4.67;;;;;;;;5000786;28;45328;-78
2024/03/15 01:21:12;;;;;;;;;4.00;4.00;;;;;;;;5000388;28;45414;-79
2024/03/15 01:23:38;;;;;;;;;6.67;6.67;;;;;;;;4982397;28;48189;-80
2024/03/15 01:26:03;;;;;;;;;6.33;6.33;;;;;;;;5000995;28;45332;-79
2024/03/15 01:28:31;;;;;;;;;4.33;4.00;;;;;;;;5000935;28;45506;-79
2024/03/15 01:30:59;;;;;;;;;7.33;7.00;;;;;;;;5000564;28;45233;-79
2024/03/15 01:33:24;;;;;;;;;8.00;8.00;;;;;;;;4999889;28;46352;-79
2024/03/15 01:35:50;;;;;;;;;3.00;3.00;;;;;;;;5000336;28;45732;-79
2024/03/15 01:38:18;;;;;;;;;6.33;6.33;;;;;;;;4983099;28;45387;-78
2024/03/15 01:40:43;;;;;;;;;8.00;8.00;;;;;;;;5000414;28;45321;-79
2024/03/15 01:43:12;;;;;;;;;6.00;6.00;;;;;;;;4999951;28;46196;-78
2024/03/15 01:45:37;;;;;;;;;7.00;6.33;;;;;;;;4982633;28;45621;-78
2024/03/15 01:48:03;;;;;;;;;4.33;4.33;;;;;;;;4982112;28;45291;-78
2024/03/15 01:50:29;;;;;;;;;6.00;6.00;;;;;;;;5000337;28;45310;-79
2024/03/15 01:52:54;;;;;;;;;6.67;6.67;;;;;;;;4982094;28;48411;-79
2024/03/15 01:55:19;;;;;;;;;5.00;5.00;;;;;;;;5000196;28;45352;-79
2024/03/15 01:57:45;;;;;;;;;6.67;4.00;;;;;;;;5011352;28;45553;-78
2024/03/15 02:00:10;;;;;;;;;5.67;5.67;;;;;;;;5019994;28;45387;-79
2024/03/15 02:02:36;;;;;;;;;6.33;5.67;;;;;;;;5002164;28;46322;-78
2024/03/15 02:05:01;;;;;;;;;4.67;4.67;;;;;;;;5001943;28;45360;-79
2024/03/15 02:07:29;;;;;;;;;5.00;5.00;;;;;;;;5020308;28;45416;-79
2024/03/15 02:09:55;;;;;;;;;4.67;4.67;;;;;;;;5001993;28;47048;-79
2024/03/15 02:12:20;;;;;;;;;5.67;4.67;;;;;;;;5001954;28;47346;-79
2024/03/15 02:14:48;;;;;;;;;7.00;7.00;;;;;;;;5019995;28;45155;-79
2024/03/15 02:17:14;;;;;;;;;7.33;5.67;;;;;;;;5020039;28;45361;-78
2024/03/15 02:19:39;;;;;;;;;4.33;4.33;;;;;;;;5019538;28;45309;-79
2024/03/15 02:22:04;;;;;;;;;7.00;7.00;;;;;;;;5002175;28;47134;-78
2024/03/15 02:24:30;;;;;;;;;4.33;4.33;;;;;;;;5019897;28;45326;-78
2024/03/15 02:26:55;;;;;;;;;4.00;4.00;;;;;;;;5020049;28;45367;-78
2024/03/15 02:29:20;;;;;;;;;4.67;4.67;;;;;;;;5001761;28;46355;-79
2024/03/15 02:31:48;;;;;;;;;6.00;6.00;;;;;;;;5019504;28;46230;-79
2024/03/15 02:34:16;;;;;;;;;4.00;4.00;;;;;;;;5001323;28;45343;-78
2024/03/15 02:36:42;;;;;;;;;4.00;3.00;;;;;;;;5019660;28;45328;-79
2024/03/15 02:39:07;;;;;;;;;6.33;5.00;;;;;;;;5019488;28;45207;-79
2024/03/15 02:41:33;;;;;;;;;5.00;5.00;;;;;;;;5019594;28;45825;-78
2024/03/15 02:43:59;;;;;;;;;7.00;4.33;;;;;;;;5001656;28;45861;-78
2024/03/15 02:46:25;;;;;;;;;4.00;4.00;;;;;;;;5001489;28;45387;-79
2024/03/15 02:48:50;;;;;;;;;7.00;6.00;;;;;;;;5018916;28;45221;-78
2024/03/15 02:51:15;;;;;;;;;3.00;3.00;;;;;;;;5019534;28;46317;-79
2024/03/15 02:53:41;;;;;;;;;5.00;5.00;;;;;;;;5001575;28;45373;-78
2024/03/15 02:56:06;;;;;;;;;6.67;5.67;;;;;;;;5019761;28;45353;-78
2024/03/15 02:58:31;;;;;;;;;5.00;4.67;;;;;;;;5001851;28;45360;-78
2024/03/15 03:00:56;;;;;;;;;3.33;3.33;;;;;;;;4981811;28;47136;-78
2024/03/15 03:03:22;;;;;;;;;4.33;4.33;;;;;;;;4981502;28;45355;-79
2024/03/15 03:05:47;;;;;;;;;3.67;3.67;;;;;;;;4981944;28;45246;-78
2024/03/15 03:08:14;;;;;;;;;5.00;4.33;;;;;;;;4999325;28;45413;-78
2024/03/15 03:10:40;;;;;;;;;3.33;3.33;;;;;;;;4998943;28;46150;-78
2024/03/15 03:13:05;;;;;;;;;5.00;5.00;;;;;;;;4981689;28;45784;-79
2024/03/15 03:15:30;;;;;;;;;5.67;5.67;;;;;;;;4981777;28;45300;-79
2024/03/15 03:17:59;;;;;;;;;5.00;5.00;;;;;;;;4999444;28;45517;-78
2024/03/15 03:20:24;;;;;;;;;6.67;5.00;;;;;;;;4981526;28;47465;-78
2024/03/15 03:22:51;;;;;;;;;6.00;4.67;;;;;;;;4999235;28;45547;-78
2024/03/15 03:25:16;;;;;;;;;5.00;5.00;;;;;;;;4999436;28;45337;-78
2024/03/15 03:27:41;;;;;;;;;4.67;4.67;;;;;;;;4981317;28;46371;-78
2024/03/15 03:30:07;;;;;;;;;6.00;6.00;;;;;;;;4997191;28;45831;-78
2024/03/15 03:32:32;;;;;;;;;6.33;5.00;;;;;;;;4998547;28;45436;-79
2024/03/15 03:34:58;;;;;;;;;2.33;2.33;;;;;;;;4998921;28;45427;-78
2024/03/15 03:37:23;;;;;;;;;4.67;4.67;;;;;;;;4981322;28;46001;-79
2024/03/15 03:39:48;;;;;;;;;4.00;4.00;;;;;;;;4998664;28;45370;-79
2024/03/15 03:42:14;;;;;;;;;6.33;5.00;;;;;;;;4999075;28;45341;-78
2024/03/15 03:44:41;;;;;;;;;4.00;4.00;;;;;;;;4999126;28;45371;-77
2024/03/15 03:47:06;;;;;;;;;0.00;0.00;;;;;;;;4998861;28;45282;-79
2024/03/15 03:49:31;;;;;;;;;4.67;4.67;;;;;;;;4998472;28;45310;-79
2024/03/15 03:52:00;;;;;;;;;6.33;5.00;;;;;;;;4999019;28;45281;-78
2024/03/15 03:54:25;;;;;;;;;7.00;6.33;;;;;;;;4999158;28;45869;-78
2024/03/15 03:56:50;;;;;;;;;5.00;5.00;;;;;;;;4984418;28;46996;-78
2024/03/15 03:59:16;;;;;;;;;6.67;5.67;;;;;;;;5022000;28;45553;-78
2024/03/15 04:01:41;;;;;;;;;4.00;4.00;;;;;;;;5022140;28;45313;-78
2024/03/15 04:04:06;;;;;;;;;4.33;4.33;;;;;;;;5021767;28;45582;-78
2024/03/15 04:06:31;;;;;;;;;7.00;5.67;;;;;;;;5021861;28;45361;-77
2024/03/15 04:08:57;;;;;;;;;5.00;5.00;;;;;;;;5021800;28;45424;-79
2024/03/15 04:11:22;;;;;;;;;4.00;4.00;;;;;;;;5003715;28;45321;-77
2024/03/15 04:13:47;;;;;;;;;4.00;4.00;;;;;;;;5022033;28;45431;-77
2024/03/15 04:16:13;;;;;;;;;4.33;4.33;;;;;;;;5021738;28;45310;-77
2024/03/15 04:18:40;;;;;;;;;5.00;5.00;;;;;;;;5003573;28;48148;-77
2024/03/15 04:21:05;;;;;;;;;3.00;3.00;;;;;;;;5003941;28;45245;-76
2024/03/15 04:23:30;;;;;;;;;5.00;4.67;;;;;;;;5003731;28;45581;-77
2024/03/15 04:25:56;;;;;;;;;3.00;3.00;;;;;;;;5021641;28;45354;-77
2024/03/15 04:28:21;;;;;;;;;5.33;4.00;;;;;;;;5003550;28;47271;-77
2024/03/15 04:30:46;;;;;;;;;3.67;3.67;;;;;;;;5003440;28;45307;-75
2024/03/15 04:33:11;;;;;;;;;6.00;4.00;;;;;;;;5003528;28;45554;-77
2024/03/15 04:35:37;;;;;;;;;4.00;4.00;;;;;;;;5021392;28;45562;-77
2024/03/15 04:38:03;;;;;;;;;3.67;3.67;;;;;;;;5021533;28;45266;-77
2024/03/15 04:40:30;;;;;;;;;4.67;4.33;;;;;;;;5002441;28;45362;-77
2024/03/15 04:42:56;;;;;;;;;2.67;2.67;;;;;;;;5021323;28;45814;-77
2024/03/15 04:45:22;;;;;;;;;4.00;3.00;;;;;;;;5021190;28;45514;-78
2024/03/15 04:47:47;;;;;;;;;0.00;0.00;;;;;;;;5021018;28;45394;-77
2024/03/15 04:50:15;;;;;;;;;3.00;3.00;;;;;;;;5021066;28;45278;-77
2024/03/15 04:52:41;;;;;;;;;3.33;3.00;;;;;;;;5021174;28;45218;-77
2024/03/15 04:55:08;;;;;;;;;3.00;3.00;;;;;;;;5003120;28;47103;-76
2024/03/15 04:57:36;;;;;;;;;4.00;4.00;;;;;;;;4993823;28;47092;-77
2024/03/15 05:00:08;;;;;;;;;6.00;6.00;;;;;;;;4983506;28;45391;-76
2024/03/15 05:02:34;;;;;;;;;4.00;3.00;;;;;;;;4983390;28;45313;-77
2024/03/15 05:04:59;;;;;;;;;5.00;5.00;;;;;;;;5000869;28;45354;-77
2024/03/15 05:07:24;;;;;;;;;6.00;4.67;;;;;;;;5001051;28;46532;-77
2024/03/15 05:09:50;;;;;;;;;2.67;2.67;;;;;;;;4999408;28;45927;-77
2024/03/15 05:12:15;;;;;;;;;5.33;3.00;;;;;;;;5001139;28;45286;-77
2024/03/15 05:14:40;;;;;;;;;4.00;4.00;;;;;;;;5000326;28;45754;-77
2024/03/15 05:17:06;;;;;;;;;4.00;4.00;;;;;;;;5000093;28;45902;-78
2024/03/15 05:19:31;;;;;;;;;5.33;5.00;;;;;;;;5000707;28;45376;-78
2024/03/15 05:21:56;;;;;;;;;5.33;5.33;;;;;;;;4983366;28;45368;-77
2024/03/15 05:24:21;;;;;;;;;5.00;5.00;;;;;;;;4982867;28;46355;-77
2024/03/15 05:26:47;;;;;;;;;1.00;1.00;;;;;;;;5000689;28;45431;-77
2024/03/15 05:29:13;;;;;;;;;5.33;5.00;;;;;;;;5000795;28;45291;-77
2024/03/15 05:31:38;;;;;;;;;4.00;4.00;;;;;;;;5000734;28;45287;-76
2024/03/15 05:34:07;;;;;;;;;4.00;4.00;;;;;;;;5000312;28;45301;-78
2024/03/15 05:36:33;;;;;;;;;5.00;5.00;;;;;;;;4982798;28;46271;-77
2024/03/15 05:38:58;;;;;;;;;5.00;5.00;;;;;;;;5000531;28;45259;-77
2024/03/15 05:41:23;;;;;;;;;4.00;4.00;;;;;;;;5000728;28;45322;-78
2024/03/15 05:43:49;;;;;;;;;3.33;2.67;;;;;;;;4982677;28;47028;-77
2024/03/15 05:46:15;;;;;;;;;4.00;4.00;;;;;;;;5000329;28;45483;-77
2024/03/15 05:48:40;;;;;;;;;5.00;4.67;;;;;;;;4999716;28;45337;-77
2024/03/15 05:51:05;;;;;;;;;4.33;4.33;;;;;;;;5000740;28;45478;-77
2024/03/15 05:53:30;;;;;;;;;4.00;4.00;;;;;;;;5000502;28;45505;-77
2024/03/15 05:55:56;;;;;;;;;4.67;4.67;;;;;;;;5000064;28;45258;-77
2024/03/15 05:58:21;;;;;;;;;6.00;5.67;;;;;;;;5015831;28;45302;-78
2024/03/15 06:00:46;;;;;;;;;4.00;4.00;;;;;;;;5019729;28;45320;-77
2024/03/15 06:03:11;;;;;;;;;5.67;5.67;;;;;;;;5019495;28;45373;-77
2024/03/15 06:05:37;;;;;;;;;5.00;5.00;;;;;;;;5001622;28;46218;-77
2024/03/15 06:08:02;;;;;;;;;5.67;4.00;;;;;;;;5002314;28;45313;-76
2024/03/15 06:10:29;;;;;;;;;4.67;4.00;;;;;;;;5019909;28;45403;-78
2024/03/15 06:12:55;;;;;;;;;5.00;5.00;;;;;;;;5001903;28;46463;-77
2024/03/15 06:15:21;;;;;;;;;5.67;5.00;;;;;;;;5019649;28;46531;-78
2024/03/15 06:17:46;;;;;;;;;3.00;3.00;;;;;;;;5002034;28;45376;-77
2024/03/15 06:20:12;;;;;;;;;8.00;6.67;;;;;;;;5019331;28;45409;-77
2024/03/15 06:22:38;;;;;;;;;4.00;4.00;;;;;;;;5001826;28;47462;-79
2024/03/15 06:25:03;;;;;;;;;4.33;4.33;;;;;;;;5019934;28;46328;-77
2024/03/15 06:27:28;;;;;;;;;2.00;2.00;;;;;;;;5019986;28;45278;-78
2024/03/15 06:29:55;;;;;;;;;4.00;4.00;;;;;;;;5019841;28;45386;-78
2024/03/15 06:32:26;;;;;;;;;4.33;4.00;;;;;;;;5001365;28;46180;-78
2024/03/15 06:34:57;;;;;;;;;5.00;3.67;;;;;;;;5018970;28;46275;-77
2024/03/15 06:37:23;;;;;;;;;4.67;4.67;;;;;;;;5000427;28;45392;-77
2024/03/15 06:42:48;;;;;;;;;3.33;3.33;;;;;;;;4982754;28;45425;-78
2024/03/15 06:45:23;;;;;;;;;6.33;4.00;;;;;;;;4999505;28;45358;-77
2024/03/15 06:47:52;;;;;;;;;3.00;3.00;;;;;;;;4981519;28;45715;-77
2024/03/15 06:50:30;;;;;;;;;3.33;3.33;;;;;;;;4999003;28;45491;-78
2024/03/15 06:52:55;;;;;;;;;3.00;3.00;;;;;;;;4999392;28;45468;-78
2024/03/15 06:55:21;;;;;;;;;5.00;5.00;;;;;;;;5000073;28;46545;-77
2024/03/15 06:57:48;;;;;;;;;2.00;2.00;;;;;;;;4992692;28;45364;-79
2024/03/15 07:00:14;;;;;;;;;5.33;5.00;;;;;;;;5020077;28;45320;-77
2024/03/15 07:02:43;;;;;;;;;7.67;7.00;;;;;;;;5020087;28;45463;-79
2024/03/15 07:05:08;;;;;;;;;5.00;5.00;;;;;;;;5020019;28;46229;-77
2024/03/15 07:07:36;;;;;;;;;2.00;2.00;;;;;;;;5020753;28;45349;-77
2024/03/15 07:10:02;;;;;;;;;2.00;2.00;;;;;;;;5002724;28;45354;-76
2024/03/15 07:12:27;;;;;;;;;2.00;2.00;;;;;;;;5020110;28;45285;-75
2024/03/15 07:14:52;;;;;;;;;5.33;4.00;;;;;;;;5019649;28;45160;-75
2024/03/15 07:17:18;;;;;;;;;6.00;4.00;;;;;;;;5020676;28;45244;-74
2024/03/15 07:19:44;;;;;;;;;3.67;3.67;;;;;;;;5003484;28;45233;-74
2024/03/15 07:22:09;;;;;;;;;3.00;3.00;;;;;;;;5021492;28;45426;-75
2024/03/15 07:24:35;;;;;;;;;2.00;2.00;;;;;;;;5014692;28;45308;-74
2024/03/15 07:27:01;;;;;;;;;1.00;1.00;;;;;;;;5003641;28;45389;-75
2024/03/15 07:29:26;;;;;;;;;4.67;3.67;;;;;;;;5004974;28;45316;-75
2024/03/15 07:31:54;;;;;;;;;4.67;2.67;;;;;;;;5003093;28;45381;-75
2024/03/15 07:34:19;;;;;;;;;2.25;2.25;;;;;;;;5004316;28;46089;-76
2024/03/15 07:36:46;;;;;;;;;3.00;1.33;;;;;;;;5003387;28;45392;-76
2024/03/15 07:39:11;;;;;;;;;2.00;2.00;;;;;;;;5001865;28;45957;-75
2024/03/15 07:41:38;;;;;;;;;1.33;1.33;;;;;;;;5004932;28;45381;-75
2024/03/15 07:44:03;;;;;;;;;1.75;0.75;;;;;;;;4984899;28;47223;-76
2024/03/15 07:46:30;;;;;;;;;1.00;0.00;;;;;;;;5003517;28;45163;-75
2024/03/15 07:48:57;;;;;;;;;3.00;1.67;;;;;;;;4984120;28;45450;-74
2024/03/15 07:51:23;;;;;;;;;1.00;1.00;;;;;;;;5001974;28;45383;-74
2024/03/15 07:53:48;;;;;;;;;1.33;0.00;;;;;;;;5001097;28;45947;-75
2024/03/15 07:56:13;;;;;;;;;0.00;0.00;;;;;;;;5001712;28;45293;-74
2024/03/15 07:58:39;;;;;;;;;0.75;0.75;;;;;;;;5001820;28;45443;-74
2024/03/15 08:01:08;;;;;;;;;4.75;2.00;;;;;;;;5001320;28;45497;-74
2024/03/15 08:03:36;;;;;;;;;1.50;0.75;;;;;;;;5001177;28;45413;-75
2024/03/15 08:06:05;;;;;;;;;3.00;0.33;;;;;;;;4984273;28;45608;-74
2024/03/15 08:08:30;;;;;;;;;3.33;2.33;;;;;;;;5002289;28;45462;-74
2024/03/15 08:10:56;;;;;;;;;1.50;1.50;;;;;;;;4984039;28;46252;-75
2024/03/15 08:13:25;;;;;;;;;2.00;1.00;;;;;;;;4984213;28;48348;-75
2024/03/15 08:16:18;;;;;;;;;0.75;0.75;;;;;;;;4984075;28;45368;-75
2024/03/15 08:18:45;;;;;;;;;1.67;1.00;;;;;;;;5001614;28;45412;-74
2024/03/15 08:21:10;;;;;;;;;1.75;1.75;;;;;;;;5001816;28;45367;-74
2024/03/15 08:23:37;;;;;;;;;1.00;1.00;;;;;;;;5001666;28;46330;-75
2024/03/15 08:26:02;;;;;;;;;1.00;0.00;;;;;;;;4984039;28;45726;-76
2024/03/15 08:28:28;;;;;;;;;1.50;1.50;;;;;;;;5001888;28;45296;-75
2024/03/15 08:30:53;;;;;;;;;2.75;2.25;;;;;;;;4983416;28;46232;-74
2024/03/15 08:33:20;;;;;;;;;1.75;1.00;;;;;;;;5001458;28;46433;-75
2024/03/15 08:35:45;;;;;;;;;1.75;1.75;;;;;;;;5001586;28;45368;-75
2024/03/15 08:38:11;;;;;;;;;4.50;1.00;;;;;;;;5001705;28;45419;-74
2024/03/15 08:40:36;;;;;;;;;3.50;3.00;;;;;;;;5001491;28;45277;-75
2024/03/15 08:43:01;;;;;;;;;1.75;1.00;;;;;;;;4983519;28;45439;-74
2024/03/15 08:45:29;;;;;;;;;2.50;2.50;;;;;;;;5001428;28;45313;-75
2024/03/15 08:47:54;;;;;;;;;3.50;1.00;;;;;;;;5001180;28;45289;-75
2024/03/15 08:50:20;;;;;;;;;3.00;2.00;;;;;;;;4983539;28;45826;-75
2024/03/15 08:52:48;;;;;;;;;2.00;2.00;;;;;;;;5001349;28;46363;-74
2024/03/15 08:55:13;;;;;;;;;3.00;2.00;;;;;;;;5001358;28;45376;-75
2024/03/15 08:57:39;;;;;;;;;2.75;2.25;;;;;;;;5011179;28;45382;-75
2024/03/15 09:00:12;;;;;;;;;3.67;3.67;;;;;;;;5003085;28;46007;-74
2024/03/15 09:02:40;;;;;;;;;2.00;2.00;;;;;;;;5020629;28;47310;-74
2024/03/15 09:05:09;;;;;;;;;5.75;5.25;;;;;;;;5019402;28;45250;-75
2024/03/15 09:07:38;;;;;;;;;3.25;2.25;;;;;;;;5001409;28;45249;-76
2024/03/15 09:10:07;;;;;;;;;3.67;3.00;;;;;;;;4983085;28;47047;-75
2024/03/15 09:12:32;;;;;;;;;3.50;3.00;;;;;;;;4999750;28;45343;-75
2024/03/15 09:14:58;;;;;;;;;3.50;2.75;;;;;;;;5000942;28;45373;-75
2024/03/15 09:17:23;;;;;;;;;2.33;2.33;;;;;;;;4983285;28;45272;-76
2024/03/15 09:19:53;;;;;;;;;3.67;3.00;;;;;;;;5001727;28;45338;-75
2024/03/15 09:22:18;;;;;;;;;6.00;6.00;;;;;;;;4982643;28;48323;-75
2024/03/15 09:24:43;;;;;;;;;7.33;6.00;;;;;;;;5001211;28;45258;-76
2024/03/15 09:27:09;;;;;;;;;6.33;4.67;;;;;;;;5000954;28;45261;-74
2024/03/15 09:29:34;;;;;;;;;7.67;7.00;;;;;;;;5000963;28;45396;-75
2024/03/15 09:32:00;;;;;;;;;9.33;7.67;;;;;;;;5000916;28;45319;-75
2024/03/15 09:34:27;;;;;;;;;6.67;5.00;;;;;;;;5000055;28;45262;-75
2024/03/15 09:36:52;;;;;;;;;5.67;5.67;;;;;;;;5001603;28;45323;-75
2024/03/15 09:39:18;;;;;;;;;2.33;2.33;;;;;;;;5002819;28;44769;-75
2024/03/15 09:41:45;;;;;;;;;4.00;4.00;;;;;;;;5003167;28;46271;-75
2024/03/15 09:44:13;;;;;;;;;6.67;4.00;;;;;;;;4995750;28;45361;-75
2024/03/15 09:46:39;;;;;;;;;0.25;0.25;;;;;;;;4987125;28;45475;-74
2024/03/15 09:49:05;;;;;;;;;2.00;2.00;;;;;;;;5004003;28;45500;-75
2024/03/15 09:51:31;;;;;;;;;2.00;1.75;;;;;;;;5003513;28;46126;-77
2024/03/15 09:53:56;;;;;;;;;5.00;4.00;;;;;;;;4984524;28;45352;-77
2024/03/15 09:56:23;;;;;;;;;3.00;2.00;;;;;;;;5001937;28;45271;-76
2024/03/15 09:58:52;;;;;;;;;4.67;2.67;;;;;;;;5000273;28;45791;-76
2024/03/15 10:01:17;;;;;;;;;3.00;3.00;;;;;;;;5001208;28;46024;-76
2024/03/15 10:03:43;;;;;;;;;4.00;4.00;;;;;;;;5002798;28;45428;-76
2024/03/15 10:06:11;;;;;;;;;3.50;3.50;;;;;;;;5003716;28;45345;-75
2024/03/15 10:08:37;;;;;;;;;5.00;5.00;;;;;;;;5018907;28;45386;-75
2024/03/15 10:11:02;;;;;;;;;3.33;2.00;;;;;;;;5019904;28;46138;-75
2024/03/15 10:13:28;;;;;;;;;3.50;2.75;;;;;;;;5015509;28;45305;-74
2024/03/15 10:15:53;;;;;;;;;4.75;3.00;;;;;;;;5002260;28;45328;-74
2024/03/15 10:18:18;;;;;;;;;4.75;3.00;;;;;;;;5019053;28;45429;-74
2024/03/15 10:20:46;;;;;;;;;2.50;2.50;;;;;;;;5001666;28;47383;-74
2024/03/15 10:23:12;;;;;;;;;3.00;2.00;;;;;;;;5019232;28;45325;-74
2024/03/15 10:25:37;;;;;;;;;3.00;3.00;;;;;;;;5020814;28;45313;-74
2024/03/15 10:28:03;;;;;;;;;3.50;3.50;;;;;;;;4972917;28;46130;-74
2024/03/15 10:30:29;;;;;;;;;4.50;2.75;;;;;;;;4979917;28;45754;-77
2024/03/15 10:32:58;;;;;;;;;4.00;3.00;;;;;;;;4979277;28;45297;-77
2024/03/15 10:35:23;;;;;;;;;4.33;2.67;;;;;;;;4976044;28;45519;-75
2024/03/15 10:37:49;;;;;;;;;4.67;4.00;;;;;;;;4981785;28;46004;-75
2024/03/15 10:40:15;;;;;;;;;4.00;3.00;;;;;;;;4999885;28;45296;-74
2024/03/15 10:42:41;;;;;;;;;4.00;3.00;;;;;;;;4982143;28;45455;-75
2024/03/15 10:45:11;;;;;;;;;4.33;3.33;;;;;;;;4999613;28;45303;-75
2024/03/15 10:47:36;;;;;;;;;4.33;2.67;;;;;;;;4981577;28;46334;-75
2024/03/15 10:50:03;;;;;;;;;2.00;2.00;;;;;;;;4999396;28;45376;-75
2024/03/15 10:52:28;;;;;;;;;4.25;2.75;;;;;;;;4999691;28;45220;-75
2024/03/15 10:54:53;;;;;;;;;1.75;1.75;;;;;;;;4999747;28;45189;-75
2024/03/15 10:57:19;;;;;;;;;4.50;4.50;;;;;;;;4999532;28;45438;-76
2024/03/15 10:59:44;;;;;;;;;4.25;3.50;;;;;;;;4982019;28;47918;-76
2024/03/15 11:02:10;;;;;;;;;4.25;3.50;;;;;;;;4981712;28;45756;-75
2024/03/15 11:04:35;;;;;;;;;4.00;2.75;;;;;;;;4981278;28;45385;-78
2024/03/15 11:07:00;;;;;;;;;5.25;3.00;;;;;;;;5001431;28;45307;-78
2024/03/15 11:09:28;;;;;;;;;4.50;2.50;;;;;;;;5003631;28;46298;-77
2024/03/15 11:11:59;;;;;;;;;6.75;4.50;;;;;;;;5002657;28;45598;-77
2024/03/15 11:14:25;;;;;;;;;5.00;3.50;;;;;;;;5003063;28;45271;-77
2024/03/15 11:17:00;;;;;;;;;6.50;3.00;;;;;;;;5002925;28;45504;-78
2024/03/15 11:19:25;;;;;;;;;1.25;1.25;;;;;;;;4984512;28;47188;-77
2024/03/15 11:22:00;;;;;;;;;3.00;2.00;;;;;;;;5002741;28;45307;-77
2024/03/15 11:24:26;;;;;;;;;3.50;2.75;;;;;;;;4985060;28;45362;-77
2024/03/15 11:27:01;;;;;;;;;5.00;3.25;;;;;;;;4985064;28;47206;-77
2024/03/15 11:29:32;;;;;;;;;6.50;4.75;;;;;;;;5002370;28;45347;-76
2024/03/15 11:31:57;;;;;;;;;3.00;1.50;;;;;;;;5002467;28;45408;-77
2024/03/15 11:34:22;;;;;;;;;4.00;4.00;;;;;;;;5008576;28;45672;-77
2024/03/15 11:36:48;;;;;;;;;2.75;2.75;;;;;;;;4983631;28;45973;-77
2024/03/15 11:39:13;;;;;;;;;3.75;3.00;;;;;;;;5001542;28;45499;-75
2024/03/15 11:41:39;;;;;;;;;2.50;2.50;;;;;;;;5001798;28;45353;-76
2024/03/15 11:44:04;;;;;;;;;1.50;1.00;;;;;;;;5001872;28;45436;-75
2024/03/15 11:46:29;;;;;;;;;3.25;3.25;;;;;;;;4993616;28;46130;-78
2024/03/15 11:48:54;;;;;;;;;0.75;0.75;;;;;;;;5020033;28;45475;-77
2024/03/15 11:51:19;;;;;;;;;3.25;3.25;;;;;;;;5022295;28;45221;-76
2024/03/15 11:53:45;;;;;;;;;5.75;3.25;;;;;;;;5001449;28;45589;-76
2024/03/15 11:56:11;;;;;;;;;3.50;2.75;;;;;;;;5002986;28;45312;-76
2024/03/15 11:58:42;;;;;;;;;3.00;2.00;;;;;;;;4982124;28;47339;-74
2024/03/15 12:01:07;;;;;;;;;3.25;1.75;;;;;;;;5001035;28;45212;-74
2024/03/15 12:03:33;;;;;;;;;2.00;2.00;;;;;;;;5001322;28;45214;-74
2024/03/15 12:06:00;;;;;;;;;2.75;1.75;;;;;;;;4983805;28;46266;-75
2024/03/15 12:08:25;;;;;;;;;3.75;1.50;;;;;;;;5001454;28;45590;-74
2024/03/15 12:10:53;;;;;;;;;2.00;2.00;;;;;;;;4983479;28;45363;-75
2024/03/15 12:13:23;;;;;;;;;1.25;1.00;;;;;;;;5001723;28;45312;-76
2024/03/15 12:15:50;;;;;;;;;2.75;2.50;;;;;;;;5001147;28;45453;-75
2024/03/15 12:18:19;;;;;;;;;3.00;3.00;;;;;;;;5000531;28;46231;-75
2024/03/15 12:20:45;;;;;;;;;3.00;2.75;;;;;;;;5000007;28;45337;-76
2024/03/15 12:23:14;;;;;;;;;3.00;2.25;;;;;;;;4983546;28;45255;-76
2024/03/15 12:25:40;;;;;;;;;3.00;2.00;;;;;;;;5001614;28;45372;-75
2024/03/15 12:28:06;;;;;;;;;3.00;0.00;;;;;;;;4983319;28;45718;-76
2024/03/15 12:30:31;;;;;;;;;3.25;1.75;;;;;;;;4983388;28;45339;-75
2024/03/15 12:32:57;;;;;;;;;4.00;4.00;;;;;;;;5001438;28;45448;-76
2024/03/15 12:35:22;;;;;;;;;2.25;1.75;;;;;;;;4984016;28;45653;-76
2024/03/15 12:37:47;;;;;;;;;1.75;1.00;;;;;;;;4997341;28;46047;-76
2024/03/15 12:40:16;;;;;;;;;1.00;1.00;;;;;;;;5002680;28;45374;-75
2024/03/15 12:42:42;;;;;;;;;0.75;0.75;;;;;;;;5002876;28;45558;-74
2024/03/15 12:45:08;;;;;;;;;2.00;1.00;;;;;;;;5021072;28;45495;-74
2024/03/15 12:47:36;;;;;;;;;2.25;1.00;;;;;;;;5021830;28;45344;-75
2024/03/15 12:50:10;;;;;;;;;2.00;2.00;;;;;;;;5013125;28;45396;-75
2024/03/15 12:52:35;;;;;;;;;3.25;3.25;;;;;;;;4982877;28;45239;-76
2024/03/15 12:55:00;;;;;;;;;2.25;1.75;;;;;;;;4983737;28;46091;-76
2024/03/15 12:57:28;;;;;;;;;4.25;3.25;;;;;;;;5009993;28;46031;-75
2024/03/15 12:59:53;;;;;;;;;2.50;2.50;;;;;;;;5004888;28;45491;-76
2024/03/15 13:02:18;;;;;;;;;3.00;2.00;;;;;;;;5008605;28;45593;-76
2024/03/15 13:04:43;;;;;;;;;3.75;1.50;;;;;;;;5000279;28;45551;-75
2024/03/15 13:07:08;;;;;;;;;2.25;1.00;;;;;;;;4982996;28;45566;-76
2024/03/15 13:09:33;;;;;;;;;1.00;1.00;;;;;;;;5000657;28;45374;-76
2024/03/15 13:12:00;;;;;;;;;1.75;1.75;;;;;;;;5000788;28;45479;-75
2024/03/15 13:14:25;;;;;;;;;3.25;0.00;;;;;;;;5000364;28;45348;-76
2024/03/15 13:16:50;;;;;;;;;0.50;0.50;;;;;;;;5010825;28;46372;-79
2024/03/15 13:19:15;;;;;;;;;3.75;3.75;;;;;;;;5005185;28;45367;-79
2024/03/15 13:21:42;;;;;;;;;2.50;2.00;;;;;;;;4999334;28;45508;-79
2024/03/15 13:24:08;;;;;;;;;3.25;1.25;;;;;;;;5014571;28;45370;-79
2024/03/15 13:26:33;;;;;;;;;2.25;1.00;;;;;;;;5020503;28;45504;-78
2024/03/15 13:28:58;;;;;;;;;1.25;1.25;;;;;;;;5002042;28;45229;-77
2024/03/15 13:31:24;;;;;;;;;2.00;1.00;;;;;;;;5019567;28;45330;-80
2024/03/15 13:33:49;;;;;;;;;2.00;1.75;;;;;;;;5001569;28;45391;-78
2024/03/15 13:36:14;;;;;;;;;2.50;2.25;;;;;;;;4999380;28;45403;-80
2024/03/15 13:38:40;;;;;;;;;1.00;1.00;;;;;;;;4978569;28;45295;-79
2024/03/15 13:41:07;;;;;;;;;3.50;1.00;;;;;;;;4999956;28;45324;-82
2024/03/15 13:43:32;;;;;;;;;1.50;0.75;;;;;;;;4981337;28;46088;-79
2024/03/15 13:45:57;;;;;;;;;1.00;1.00;;;;;;;;4982416;28;45632;-79
2024/03/15 13:48:22;;;;;;;;;2.25;2.00;;;;;;;;5000129;28;45378;-79
2024/03/15 13:50:48;;;;;;;;;2.00;0.50;;;;;;;;4999701;28;45327;-79
2024/03/15 13:53:13;;;;;;;;;1.00;1.00;;;;;;;;4999709;28;45496;-79
2024/03/15 13:55:39;;;;;;;;;2.25;1.00;;;;;;;;5000409;28;45516;-79
2024/03/15 13:58:04;;;;;;;;;0.25;0.00;;;;;;;;5013817;28;45286;-78
2024/03/15 14:00:34;;;;;;;;;1.00;1.00;;;;;;;;5020448;28;45404;-78
2024/03/15 14:03:03;;;;;;;;;1.00;1.00;;;;;;;;5020257;28;45285;-78
2024/03/15 14:05:37;;;;;;;;;1.00;1.00;;;;;;;;5019857;28;45328;-78
2024/03/15 14:08:05;;;;;;;;;1.00;1.00;;;;;;;;5019917;28;45449;-77
2024/03/15 14:10:30;;;;;;;;;3.00;1.25;;;;;;;;5019603;28;45335;-76
2024/03/15 14:12:56;;;;;;;;;0.50;0.50;;;;;;;;5020184;28;45378;-80
2024/03/15 14:15:21;;;;;;;;;3.00;1.75;;;;;;;;5002238;28;47304;-78
2024/03/15 14:17:46;;;;;;;;;0.00;0.00;;;;;;;;5001702;28;45330;-79
2024/03/15 14:20:12;;;;;;;;;0.00;0.00;;;;;;;;5000716;28;45184;-79
2024/03/15 14:22:38;;;;;;;;;0.00;0.00;;;;;;;;4999922;28;45935;-78
2024/03/15 14:25:04;;;;;;;;;2.75;0.25;;;;;;;;4998865;28;45680;-79
2024/03/15 14:27:30;;;;;;;;;1.00;0.50;;;;;;;;4995879;28;45175;-81
2024/03/15 14:29:55;;;;;;;;;1.00;1.00;;;;;;;;4982313;28;45334;-80
2024/03/15 14:32:20;;;;;;;;;1.50;1.50;;;;;;;;4999629;28;45401;-80
2024/03/15 14:34:46;;;;;;;;;1.50;1.50;;;;;;;;4999429;28;46765;-79
2024/03/15 14:37:12;;;;;;;;;0.50;0.50;;;;;;;;4981325;28;45361;-80
2024/03/15 14:39:41;;;;;;;;;2.00;1.75;;;;;;;;4980835;28;45743;-79